createdAt,value
2022-08-22T00:00:15.146Z,18.00
2022-08-22T00:03:04.185Z,21.00
2022-08-22T00:06:20.308Z,18.00
2022-08-22T00:09:18.061Z,18.00
2022-08-22T00:11:57.953Z,18.00
2022-08-22T00:14:52.092Z,18.00
2022-08-22T00:17:55.899Z,18.00
2022-08-22T00:20:52.854Z,18.00
2022-08-22T00:23:30.630Z,18.00
2022-08-22T00:26:09.068Z,17.90
2022-08-22T00:28:44.184Z,17.90
2022-08-22T00:31:26.055Z,17.90
2022-08-22T00:34:01.227Z,17.90
2022-08-22T00:36:35.471Z,17.90
2022-08-22T00:39:35.695Z,17.90
2022-08-22T00:42:14.661Z,17.90
2022-08-22T00:45:01.168Z,17.80
2022-08-22T00:47:57.991Z,17.80
2022-08-22T00:50:27.899Z,17.90
2022-08-22T00:53:08.751Z,17.80
2022-08-22T00:55:48.868Z,17.90
2022-08-22T00:58:33.831Z,17.90
2022-08-22T01:01:07.873Z,17.90
2022-08-22T01:03:55.254Z,17.90
2022-08-22T01:06:46.385Z,17.80
2022-08-22T01:09:18.897Z,17.80
2022-08-22T01:12:15.523Z,17.80
2022-08-22T01:15:15.159Z,17.80
2022-08-22T01:17:56.878Z,17.80
2022-08-22T01:21:03.678Z,17.80
2022-08-22T01:24:05.378Z,17.70
2022-08-22T01:27:05.194Z,17.70
2022-08-22T01:29:41.481Z,17.70
2022-08-22T01:32:45.079Z,17.70
2022-08-22T01:35:45.879Z,17.60
2022-08-22T01:38:36.249Z,17.60
2022-08-22T01:41:47.883Z,17.50
2022-08-22T01:44:17.932Z,17.60
2022-08-22T01:47:14.646Z,17.60
2022-08-22T01:50:08.282Z,17.60
2022-08-22T01:52:49.661Z,17.60
2022-08-22T01:55:31.169Z,17.50
2022-08-22T01:58:01.240Z,17.60
2022-08-22T02:00:48.577Z,17.60
2022-08-22T02:03:21.284Z,17.50
2022-08-22T02:06:00.926Z,17.50
2022-08-22T02:08:50.403Z,17.50
2022-08-22T02:11:52.788Z,17.50
2022-08-22T02:14:43.506Z,17.50
2022-08-22T02:17:21.892Z,17.40
2022-08-22T02:20:01.617Z,17.40
2022-08-22T02:22:34.950Z,17.40
2022-08-22T02:25:15.050Z,17.30
2022-08-22T02:28:05.998Z,17.30
2022-08-22T02:31:00.486Z,17.30
2022-08-22T02:33:53.191Z,17.20
2022-08-22T02:36:30.796Z,17.20
2022-08-22T02:39:10.883Z,17.20
2022-08-22T02:42:01.847Z,17.30
2022-08-22T02:44:36.527Z,17.30
2022-08-22T02:47:11.843Z,17.30
2022-08-22T02:50:05.999Z,17.30
2022-08-22T02:53:24.679Z,17.30
2022-08-22T02:56:18.764Z,17.30
2022-08-22T02:58:57.324Z,17.30
2022-08-22T03:01:32.526Z,17.20
2022-08-22T03:04:24.387Z,17.20
2022-08-22T03:07:06.884Z,17.20
2022-08-22T03:09:41.352Z,17.20
2022-08-22T03:12:20.996Z,17.20
2022-08-22T03:15:00.947Z,17.20
2022-08-22T03:17:38.406Z,17.20
2022-08-22T03:20:06.444Z,17.20
2022-08-22T03:22:44.202Z,17.20
2022-08-22T03:25:38.053Z,17.10
2022-08-22T03:28:18.471Z,17.10
2022-08-22T03:30:55.413Z,17.10
2022-08-22T03:33:31.172Z,17.10
2022-08-22T03:36:04.109Z,17.10
2022-08-22T03:38:33.611Z,17.10
2022-08-22T03:41:21.685Z,17.10
2022-08-22T03:43:48.484Z,17.10
2022-08-22T03:46:20.668Z,17.10
2022-08-22T03:48:56.382Z,17.10
2022-08-22T03:51:38.490Z,17.10
2022-08-22T03:54:23.359Z,17.10
2022-08-22T03:57:21.206Z,17.10
2022-08-22T04:00:07.954Z,17.10
2022-08-22T04:03:12.006Z,17.10
2022-08-22T04:05:57.438Z,17.10
2022-08-22T04:08:45.874Z,17.10
2022-08-22T04:11:36.271Z,17.10
2022-08-22T04:14:33.236Z,17.10
2022-08-22T04:17:23.396Z,17.10
2022-08-22T04:20:02.315Z,17.10
2022-08-22T04:22:55.460Z,17.00
2022-08-22T04:25:38.786Z,17.00
2022-08-22T04:28:17.443Z,17.00
2022-08-22T04:30:58.810Z,17.00
2022-08-22T04:33:47.111Z,17.00
2022-08-22T04:36:26.340Z,17.10
2022-08-22T04:39:18.667Z,17.10
2022-08-22T04:41:51.492Z,17.10
2022-08-22T04:44:46.228Z,17.00
2022-08-22T04:47:37.422Z,17.00
2022-08-22T04:50:26.128Z,17.10
2022-08-22T04:53:48.454Z,17.00
2022-08-22T04:56:39.246Z,17.00
2022-08-22T04:59:13.824Z,17.00
2022-08-22T05:01:54.958Z,17.00
2022-08-22T05:04:32.266Z,17.00
2022-08-22T05:07:11.021Z,17.00
2022-08-22T05:09:59.260Z,17.00
2022-08-22T05:12:32.850Z,17.00
2022-08-22T05:15:15.279Z,17.00
2022-08-22T05:17:48.826Z,17.00
2022-08-22T05:20:18.807Z,17.00
2022-08-22T05:22:51.271Z,17.10
2022-08-22T05:25:26.486Z,17.10
2022-08-22T05:28:08.700Z,17.10
2022-08-22T05:30:45.088Z,17.10
2022-08-22T05:33:29.152Z,17.10
2022-08-22T05:36:10.002Z,17.10
2022-08-22T05:38:48.477Z,17.10
2022-08-22T05:41:23.756Z,17.10
2022-08-22T05:43:52.651Z,17.20
2022-08-22T05:46:44.947Z,17.20
2022-08-22T05:49:36.016Z,17.20
2022-08-22T05:52:15.900Z,17.20
2022-08-22T05:54:57.306Z,17.20
2022-08-22T05:57:31.531Z,17.30
2022-08-22T06:00:05.092Z,17.30
2022-08-22T06:03:09.667Z,17.30
2022-08-22T06:05:40.171Z,17.30
2022-08-22T06:08:34.462Z,17.30
2022-08-22T06:11:12.164Z,17.40
2022-08-22T06:13:53.292Z,17.40
2022-08-22T06:16:48.744Z,17.40
2022-08-22T06:19:19.775Z,17.50
2022-08-22T06:21:52.926Z,17.50
2022-08-22T06:24:25.054Z,17.60
2022-08-22T06:26:54.752Z,17.60
2022-08-22T06:29:34.020Z,17.60
2022-08-22T06:32:10.607Z,17.70
2022-08-22T06:34:43.959Z,17.70
2022-08-22T06:37:17.316Z,17.70
2022-08-22T06:39:49.166Z,17.60
2022-08-22T06:42:28.442Z,17.70
2022-08-22T06:45:07.001Z,17.80
2022-08-22T06:47:40.326Z,17.80
2022-08-22T06:50:19.330Z,17.70
2022-08-22T06:52:58.387Z,17.80
2022-08-22T06:55:28.325Z,17.80
2022-08-22T06:58:05.897Z,17.90
2022-08-22T07:00:34.830Z,17.90
2022-08-22T07:03:07.849Z,18.00
2022-08-22T07:05:37.979Z,18.10
2022-08-22T07:08:12.007Z,18.10
2022-08-22T07:10:44.321Z,18.10
2022-08-22T07:13:19.580Z,18.00
2022-08-22T07:15:56.286Z,18.10
2022-08-22T07:18:26.015Z,18.20
2022-08-22T07:20:56.984Z,18.20
2022-08-22T07:23:47.791Z,18.30
2022-08-22T07:26:38.458Z,18.40
2022-08-22T07:29:15.008Z,18.50
2022-08-22T07:32:16.062Z,18.60
2022-08-22T07:34:45.591Z,18.60
2022-08-22T07:37:27.031Z,18.70
2022-08-22T07:39:59.944Z,18.70
2022-08-22T07:42:55.468Z,18.80
2022-08-22T07:45:35.202Z,18.80
2022-08-22T07:48:26.293Z,18.90
2022-08-22T07:51:12.527Z,19.00
2022-08-22T07:54:00.846Z,19.10
2022-08-22T07:56:36.291Z,19.10
2022-08-22T07:59:17.135Z,19.20
2022-08-22T08:01:48.181Z,19.30
2022-08-22T08:04:19.513Z,19.40
2022-08-22T08:06:50.670Z,19.50
2022-08-22T08:09:20.187Z,19.60
2022-08-22T08:11:51.693Z,19.70
2022-08-22T08:14:21.038Z,19.80
2022-08-22T08:17:01.176Z,19.80
2022-08-22T08:19:30.519Z,19.90
2022-08-22T08:21:58.652Z,19.90
2022-08-22T08:24:46.474Z,20.00
2022-08-22T08:27:39.572Z,20.10
2022-08-22T08:30:23.949Z,20.20
2022-08-22T08:33:24.199Z,20.30
2022-08-22T08:36:03.533Z,20.40
2022-08-22T08:38:39.080Z,20.40
2022-08-22T08:41:51.787Z,20.60
2022-08-22T08:44:25.922Z,20.60
2022-08-22T08:47:11.223Z,20.70
2022-08-22T08:49:44.711Z,20.90
2022-08-22T08:52:32.078Z,21.00
2022-08-22T08:55:22.775Z,21.10
2022-08-22T08:58:12.165Z,21.20
2022-08-22T09:00:42.724Z,21.30
2022-08-22T09:03:35.836Z,21.50
2022-08-22T09:06:30.538Z,21.60
2022-08-22T09:09:06.214Z,21.80
2022-08-22T09:12:01.431Z,22.00
2022-08-22T09:15:12.016Z,22.30
2022-08-22T09:18:09.188Z,22.60
2022-08-22T09:20:59.180Z,23.00
2022-08-22T09:23:47.472Z,23.30
2022-08-22T09:26:48.203Z,23.60
2022-08-22T09:29:54.456Z,24.00
2022-08-22T09:32:33.811Z,24.40
2022-08-22T09:35:27.988Z,24.80
2022-08-22T09:38:39.700Z,25.20
2022-08-22T09:41:24.044Z,25.60
2022-08-22T09:44:22.348Z,26.00
2022-08-22T09:46:56.461Z,26.30
2022-08-22T09:49:49.068Z,26.30
2022-08-22T09:52:51.215Z,26.50
2022-08-22T09:55:52.687Z,26.90
2022-08-22T09:58:52.817Z,27.30
2022-08-22T10:01:46.580Z,27.80
2022-08-22T10:04:34.280Z,27.90
2022-08-22T10:07:35.836Z,28.10
2022-08-22T10:10:16.510Z,28.20
2022-08-22T10:13:10.420Z,28.40
2022-08-22T10:15:55.800Z,28.30
2022-08-22T10:18:44.031Z,27.80
2022-08-22T10:21:37.196Z,27.50
2022-08-22T10:24:25.169Z,27.60
2022-08-22T10:27:06.442Z,27.90
2022-08-22T10:29:43.526Z,27.80
2022-08-22T10:32:21.952Z,28.30
2022-08-22T10:34:59.253Z,28.50
2022-08-22T10:37:37.235Z,28.50
2022-08-22T10:40:39.095Z,28.60
2022-08-22T10:43:34.474Z,28.90
2022-08-22T10:46:12.586Z,29.00
2022-08-22T10:48:54.876Z,29.00
2022-08-22T10:51:51.422Z,29.10
2022-08-22T10:54:28.813Z,29.40
2022-08-22T10:57:03.691Z,29.50
2022-08-22T10:59:44.715Z,29.80
2022-08-22T11:02:38.480Z,29.60
2022-08-22T11:05:20.889Z,29.00
2022-08-22T11:08:07.691Z,28.50
2022-08-22T11:11:02.805Z,28.40
2022-08-22T11:13:45.938Z,28.30
2022-08-22T11:16:21.678Z,28.60
2022-08-22T11:19:16.511Z,29.00
2022-08-22T11:22:08.123Z,29.30
2022-08-22T11:25:00.261Z,29.40
2022-08-22T11:27:37.699Z,29.40
2022-08-22T11:30:18.672Z,28.80
2022-08-22T11:32:49.759Z,29.10
2022-08-22T11:35:24.158Z,28.80
2022-08-22T11:38:36.141Z,28.70
2022-08-22T11:41:14.967Z,28.50
2022-08-22T11:43:56.430Z,28.50
2022-08-22T11:46:36.670Z,28.50
2022-08-22T11:49:25.783Z,28.30
2022-08-22T11:52:12.382Z,28.30
2022-08-22T11:55:12.436Z,28.20
2022-08-22T11:57:49.968Z,28.20
2022-08-22T12:00:32.159Z,27.90
2022-08-22T12:03:37.432Z,27.50
2022-08-22T12:06:27.602Z,27.50
2022-08-22T12:09:09.816Z,27.50
2022-08-22T12:12:11.583Z,27.60
2022-08-22T12:14:44.898Z,27.70
2022-08-22T12:17:55.325Z,27.80
2022-08-22T12:20:31.478Z,27.80
2022-08-22T12:23:17.995Z,28.00
2022-08-22T12:26:14.053Z,28.30
2022-08-22T12:28:41.004Z,28.40
2022-08-22T12:31:25.697Z,28.50
2022-08-22T12:34:03.977Z,28.50
2022-08-22T12:37:02.207Z,28.40
2022-08-22T12:40:12.816Z,28.40
2022-08-22T12:42:48.876Z,28.30
2022-08-22T12:45:34.836Z,28.20
2022-08-22T12:48:26.716Z,28.10
2022-08-22T12:51:17.442Z,27.90
2022-08-22T12:54:09.124Z,27.70
2022-08-22T12:57:15.250Z,27.50
2022-08-22T12:59:55.298Z,27.50
2022-08-22T13:02:29.735Z,27.40
2022-08-22T13:05:20.010Z,27.30
2022-08-22T13:07:56.400Z,27.20
2022-08-22T13:10:44.902Z,27.10
2022-08-22T13:13:31.376Z,27.30
2022-08-22T13:16:13.427Z,27.20
2022-08-22T13:19:07.832Z,27.30
2022-08-22T13:21:39.578Z,27.40
2022-08-22T13:24:10.416Z,27.70
2022-08-22T13:26:50.419Z,28.00
2022-08-22T13:29:26.883Z,28.10
2022-08-22T13:32:02.150Z,28.10
2022-08-22T13:34:45.771Z,28.10
2022-08-22T13:37:24.865Z,28.10
2022-08-22T13:40:00.566Z,27.90
2022-08-22T13:42:31.335Z,27.90
2022-08-22T13:45:05.462Z,27.90
2022-08-22T13:47:39.456Z,27.90
2022-08-22T13:50:14.028Z,28.00
2022-08-22T13:52:59.955Z,27.90
2022-08-22T13:55:34.034Z,27.90
2022-08-22T13:58:14.583Z,27.90
2022-08-22T14:01:05.871Z,27.90
2022-08-22T14:03:48.635Z,28.10
2022-08-22T14:06:37.912Z,27.90
2022-08-22T14:09:31.342Z,28.00
2022-08-22T14:12:08.221Z,27.90
2022-08-22T14:14:42.503Z,27.90
2022-08-22T14:17:19.407Z,27.90
2022-08-22T14:20:01.587Z,27.70
2022-08-22T14:22:35.048Z,27.70
2022-08-22T14:25:16.126Z,27.90
2022-08-22T14:28:03.664Z,27.80
2022-08-22T14:31:01.069Z,27.80
2022-08-22T14:33:40.814Z,27.80
2022-08-22T14:36:22.291Z,27.70
2022-08-22T14:38:58.454Z,27.50
2022-08-22T14:41:52.669Z,27.50
2022-08-22T14:44:28.142Z,27.40
2022-08-22T14:47:00.414Z,27.40
2022-08-22T14:49:30.549Z,27.50
2022-08-22T14:52:19.550Z,27.30
2022-08-22T14:54:47.480Z,27.40
2022-08-22T14:57:20.220Z,27.50
2022-08-22T14:59:52.212Z,27.30
2022-08-22T15:02:31.427Z,27.20
2022-08-22T15:05:12.021Z,27.20
2022-08-22T15:07:39.679Z,27.10
2022-08-22T15:10:33.366Z,27.10
2022-08-22T15:13:08.007Z,27.10
2022-08-22T15:15:41.138Z,27.10
2022-08-22T15:18:33.664Z,27.00
2022-08-22T15:21:08.768Z,27.00
2022-08-22T15:23:45.183Z,26.90
2022-08-22T15:26:36.241Z,26.90
2022-08-22T15:29:24.238Z,26.80
2022-08-22T15:31:57.798Z,26.90
2022-08-22T15:34:42.017Z,26.90
2022-08-22T15:37:18.039Z,27.00
2022-08-22T15:40:11.815Z,27.10
2022-08-22T15:42:48.051Z,27.00
2022-08-22T15:45:31.003Z,26.90
2022-08-22T15:48:04.511Z,26.90
2022-08-22T15:50:34.337Z,26.80
2022-08-22T15:53:20.756Z,26.70
2022-08-22T15:56:05.010Z,26.80
2022-08-22T15:58:39.691Z,26.70
2022-08-22T16:01:22.517Z,26.60
2022-08-22T16:04:12.495Z,26.60
2022-08-22T16:06:44.313Z,26.70
2022-08-22T16:09:29.872Z,26.70
2022-08-22T16:11:58.422Z,26.80
2022-08-22T16:14:46.825Z,26.80
2022-08-22T16:17:28.853Z,26.90
2022-08-22T16:20:15.893Z,26.80
2022-08-22T16:22:59.016Z,26.80
2022-08-22T16:25:44.783Z,26.70
2022-08-22T16:28:36.098Z,26.60
2022-08-22T16:31:27.891Z,26.60
2022-08-22T16:34:20.599Z,26.60
2022-08-22T16:36:51.563Z,26.60
2022-08-22T16:39:21.168Z,26.50
2022-08-22T16:42:12.779Z,26.50
2022-08-22T16:44:42.579Z,26.50
2022-08-22T16:47:19.903Z,26.40
2022-08-22T16:49:49.718Z,26.40
2022-08-22T16:52:25.911Z,26.40
2022-08-22T16:54:58.724Z,26.30
2022-08-22T16:57:32.459Z,26.30
2022-08-22T17:00:07.220Z,26.30
2022-08-22T17:03:03.507Z,26.20
2022-08-22T17:05:43.143Z,26.10
2022-08-22T17:08:35.688Z,26.10
2022-08-22T17:11:11.140Z,26.10
2022-08-22T17:14:06.199Z,26.00
2022-08-22T17:17:09.684Z,25.90
2022-08-22T17:19:52.199Z,25.90
2022-08-22T17:22:36.035Z,25.80
2022-08-22T17:25:34.060Z,25.70
2022-08-22T17:28:22.603Z,25.60
2022-08-22T17:31:04.728Z,25.60
2022-08-22T17:33:40.595Z,25.50
2022-08-22T17:36:32.547Z,25.50
2022-08-22T17:39:17.303Z,25.50
2022-08-22T17:42:22.242Z,25.50
2022-08-22T17:45:17.883Z,25.40
2022-08-22T17:47:55.082Z,25.40
2022-08-22T17:50:40.434Z,25.30
2022-08-22T17:53:34.458Z,25.30
2022-08-22T17:56:22.860Z,25.30
2022-08-22T17:59:03.007Z,25.20
2022-08-22T18:01:47.150Z,25.20
2022-08-22T18:04:34.711Z,25.10
2022-08-22T18:07:41.973Z,25.10
2022-08-22T18:10:21.649Z,25.00
2022-08-22T18:13:27.239Z,25.00
2022-08-22T18:16:01.447Z,24.80
2022-08-22T18:18:33.358Z,24.70
2022-08-22T18:21:15.293Z,24.70
2022-08-22T18:23:49.033Z,24.60
2022-08-22T18:26:27.166Z,24.50
2022-08-22T18:29:09.790Z,24.40
2022-08-22T18:31:48.987Z,24.40
2022-08-22T18:35:02.713Z,24.20
2022-08-22T18:37:33.088Z,24.10
2022-08-22T18:40:26.839Z,24.00
2022-08-22T18:43:05.168Z,24.00
2022-08-22T18:45:46.757Z,23.90
2022-08-22T18:48:26.987Z,23.80
2022-08-22T18:51:24.747Z,23.70
2022-08-22T18:54:00.733Z,23.60
2022-08-22T18:56:45.704Z,23.50
2022-08-22T18:59:23.640Z,23.40
2022-08-22T19:02:28.027Z,23.20
2022-08-22T19:05:17.671Z,23.10
2022-08-22T19:08:07.683Z,23.00
2022-08-22T19:10:46.468Z,22.90
2022-08-22T19:13:22.146Z,22.80
2022-08-22T19:16:05.646Z,22.80
2022-08-22T19:18:52.807Z,22.70
2022-08-22T19:21:53.399Z,22.70
2022-08-22T19:24:20.035Z,22.60
2022-08-22T19:26:51.072Z,22.50
2022-08-22T19:29:17.695Z,22.40
2022-08-22T19:31:50.335Z,22.40
2022-08-22T19:34:19.471Z,22.30
2022-08-22T19:37:06.479Z,22.30
2022-08-22T19:39:42.058Z,22.20
2022-08-22T19:42:30.283Z,22.10
2022-08-22T19:45:02.498Z,22.00
2022-08-22T19:47:58.127Z,21.90
2022-08-22T19:50:31.544Z,21.90
2022-08-22T19:53:24.943Z,21.90
2022-08-22T19:56:01.519Z,21.80
2022-08-22T19:59:08.656Z,21.80
2022-08-22T20:01:45.294Z,21.70
2022-08-22T20:04:32.498Z,21.60
2022-08-22T20:07:24.600Z,21.60
2022-08-22T20:09:57.572Z,21.50
2022-08-22T20:12:49.198Z,21.40
2022-08-22T20:15:22.788Z,21.30
2022-08-22T20:20:54.452Z,21.20
2022-08-22T20:23:30.112Z,21.10
2022-08-22T20:25:58.143Z,21.00
2022-08-22T20:28:40.934Z,20.90
2022-08-22T20:31:20.782Z,20.80
2022-08-22T20:33:55.316Z,20.70
2022-08-22T20:36:28.906Z,20.70
2022-08-22T20:39:08.185Z,20.80
2022-08-22T20:41:42.699Z,20.70
2022-08-22T20:44:31.647Z,20.70
2022-08-22T20:47:13.099Z,20.50
2022-08-22T20:49:55.847Z,20.40
2022-08-22T20:52:32.547Z,20.30
2022-08-22T20:55:05.019Z,20.20
2022-08-22T20:57:33.208Z,20.20
2022-08-22T21:00:11.516Z,20.10
2022-08-22T21:02:58.594Z,20.20
2022-08-22T21:05:33.679Z,20.10
2022-08-22T21:08:13.625Z,20.10
2022-08-22T21:11:00.158Z,20.20
2022-08-22T21:13:33.771Z,20.30
2022-08-22T21:16:16.365Z,20.30
2022-08-22T21:18:46.830Z,20.40
2022-08-22T21:21:27.248Z,20.40
2022-08-22T21:24:01.072Z,20.50
2022-08-22T21:26:37.754Z,20.50
2022-08-22T21:29:13.436Z,20.50
2022-08-22T21:31:53.727Z,20.50
2022-08-22T21:34:36.400Z,20.40
2022-08-22T21:37:14.772Z,20.40
2022-08-22T21:39:50.881Z,20.30
2022-08-22T21:42:37.109Z,20.30
2022-08-22T21:45:10.861Z,20.30
2022-08-22T21:47:40.017Z,20.40
2022-08-22T21:50:18.659Z,20.40
2022-08-22T21:53:04.447Z,20.40
2022-08-22T21:55:36.947Z,20.40
2022-08-22T21:58:06.409Z,20.30
2022-08-22T22:00:49.486Z,20.30
2022-08-22T22:03:20.222Z,20.40
2022-08-22T22:05:49.513Z,20.40
2022-08-22T22:08:17.311Z,20.30
2022-08-22T22:10:45.980Z,20.30
2022-08-22T22:13:13.431Z,20.30
2022-08-22T22:15:44.171Z,20.20
2022-08-22T22:18:17.547Z,20.20
2022-08-22T22:20:45.572Z,20.10
2022-08-22T22:23:12.499Z,20.10
2022-08-22T22:25:42.408Z,20.00
2022-08-22T22:28:22.122Z,20.00
2022-08-22T22:30:52.934Z,19.90
2022-08-22T22:33:21.691Z,19.80
2022-08-22T22:35:49.395Z,19.80
2022-08-22T22:38:19.509Z,19.80
2022-08-22T22:40:50.347Z,19.70
2022-08-22T22:43:19.717Z,19.70
2022-08-22T22:45:46.705Z,19.60
2022-08-22T22:48:15.768Z,19.60
2022-08-22T22:50:54.827Z,19.60
2022-08-22T22:53:37.923Z,19.60
2022-08-22T22:56:07.278Z,19.50
2022-08-22T22:58:37.328Z,19.50
2022-08-22T23:01:36.702Z,19.50
2022-08-22T23:04:05.831Z,19.50
2022-08-22T23:06:33.040Z,19.50
2022-08-22T23:08:59.851Z,19.50
2022-08-22T23:11:29.103Z,19.50
2022-08-22T23:13:58.207Z,19.50
2022-08-22T23:16:27.819Z,19.40
2022-08-22T23:18:55.357Z,19.50
2022-08-22T23:21:27.625Z,19.50
2022-08-22T23:23:57.942Z,19.50
2022-08-22T23:26:24.844Z,19.50
2022-08-22T23:28:51.842Z,19.50
2022-08-22T23:31:26.204Z,19.50
2022-08-22T23:33:53.086Z,19.50
2022-08-22T23:36:22.139Z,19.40
2022-08-22T23:38:50.455Z,19.40
2022-08-22T23:41:20.517Z,19.40
2022-08-22T23:43:51.726Z,19.30
2022-08-22T23:46:20.612Z,19.30
2022-08-22T23:48:47.886Z,19.20
2022-08-22T23:51:17.142Z,19.20
2022-08-22T23:53:52.700Z,19.10
2022-08-22T23:56:25.401Z,19.10
2022-08-22T23:58:53.391Z,18.90
